sensor_id;sensor_type;location;lat;lon;timestamp;P1;durP1;ratioP1;P2;durP2;ratioP2
8458;SDS011;4266;48.816;9.154;2023-04-09T00:00:27;15.93;;;14.30;;
8458;SDS011;4266;48.816;9.154;2023-04-09T00:02:53;15.20;;;13.60;;
8458;SDS011;4266;48.816;9.154;2023-04-09T00:05:19;15.10;;;13.60;;
8458;SDS011;4266;48.816;9.154;2023-04-09T00:07:45;16.37;;;14.87;;
8458;SDS011;4266;48.816;9.154;2023-04-09T00:10:10;16.47;;;14.63;;
8458;SDS011;4266;48.816;9.154;2023-04-09T00:12:36;16.07;;;14.47;;
8458;SDS011;4266;48.816;9.154;2023-04-09T00:15:02;15.33;;;13.83;;
8458;SDS011;4266;48.816;9.154;2023-04-09T00:17:28;15.00;;;13.40;;
8458;SDS011;4266;48.816;9.154;2023-04-09T00:19:54;15.57;;;14.10;;
8458;SDS011;4266;48.816;9.154;2023-04-09T00:22:21;15.60;;;14.10;;
8458;SDS011;4266;48.816;9.154;2023-04-09T00:24:46;16.13;;;14.63;;
8458;SDS011;4266;48.816;9.154;2023-04-09T00:27:12;15.17;;;13.63;;
8458;SDS011;4266;48.816;9.154;2023-04-09T00:29:38;17.57;;;14.40;;
8458;SDS011;4266;48.816;9.154;2023-04-09T00:32:04;15.57;;;13.93;;
8458;SDS011;4266;48.816;9.154;2023-04-09T00:34:30;15.37;;;13.97;;
8458;SDS011;4266;48.816;9.154;2023-04-09T00:36:57;15.37;;;13.87;;
8458;SDS011;4266;48.816;9.154;2023-04-09T00:39:23;15.60;;;14.10;;
8458;SDS011;4266;48.816;9.154;2023-04-09T00:41:48;16.30;;;14.60;;
8458;SDS011;4266;48.816;9.154;2023-04-09T00:44:15;15.97;;;14.57;;
8458;SDS011;4266;48.816;9.154;2023-04-09T00:46:40;14.70;;;13.20;;
8458;SDS011;4266;48.816;9.154;2023-04-09T00:49:06;15.00;;;13.43;;
8458;SDS011;4266;48.816;9.154;2023-04-09T00:51:32;15.23;;;13.93;;
8458;SDS011;4266;48.816;9.154;2023-04-09T00:53:57;14.47;;;13.10;;
8458;SDS011;4266;48.816;9.154;2023-04-09T00:56:23;17.03;;;15.13;;
8458;SDS011;4266;48.816;9.154;2023-04-09T00:58:49;15.27;;;13.83;;
8458;SDS011;4266;48.816;9.154;2023-04-09T01:01:15;14.90;;;13.50;;
8458;SDS011;4266;48.816;9.154;2023-04-09T01:03:40;15.03;;;13.60;;
8458;SDS011;4266;48.816;9.154;2023-04-09T01:06:07;14.80;;;13.40;;
8458;SDS011;4266;48.816;9.154;2023-04-09T01:08:40;15.10;;;13.63;;
8458;SDS011;4266;48.816;9.154;2023-04-09T01:11:07;15.10;;;13.53;;
8458;SDS011;4266;48.816;9.154;2023-04-09T01:13:34;15.10;;;13.70;;
8458;SDS011;4266;48.816;9.154;2023-04-09T01:15:59;14.20;;;12.90;;
8458;SDS011;4266;48.816;9.154;2023-04-09T01:18:30;15.20;;;13.70;;
8458;SDS011;4266;48.816;9.154;2023-04-09T01:20:56;17.23;;;14.23;;
8458;SDS011;4266;48.816;9.154;2023-04-09T01:26:06;15.27;;;13.83;;
8458;SDS011;4266;48.816;9.154;2023-04-09T01:28:36;15.70;;;14.03;;
8458;SDS011;4266;48.816;9.154;2023-04-09T01:31:02;14.23;;;12.93;;
8458;SDS011;4266;48.816;9.154;2023-04-09T01:33:28;16.03;;;14.43;;
8458;SDS011;4266;48.816;9.154;2023-04-09T01:35:54;16.00;;;14.50;;
8458;SDS011;4266;48.816;9.154;2023-04-09T01:38:21;16.07;;;14.57;;
8458;SDS011;4266;48.816;9.154;2023-04-09T01:40:47;15.80;;;14.20;;
8458;SDS011;4266;48.816;9.154;2023-04-09T01:43:12;14.90;;;13.47;;
8458;SDS011;4266;48.816;9.154;2023-04-09T01:45:38;15.47;;;13.97;;
8458;SDS011;4266;48.816;9.154;2023-04-09T01:48:04;16.07;;;14.67;;
8458;SDS011;4266;48.816;9.154;2023-04-09T01:50:31;14.57;;;13.23;;
8458;SDS011;4266;48.816;9.154;2023-04-09T01:52:56;14.93;;;13.63;;
8458;SDS011;4266;48.816;9.154;2023-04-09T01:55:21;14.23;;;12.93;;
8458;SDS011;4266;48.816;9.154;2023-04-09T01:57:48;15.20;;;13.57;;
8458;SDS011;4266;48.816;9.154;2023-04-09T02:00:14;15.33;;;13.07;;
8458;SDS011;4266;48.816;9.154;2023-04-09T02:02:45;15.30;;;13.80;;
8458;SDS011;4266;48.816;9.154;2023-04-09T02:05:11;14.93;;;13.53;;
8458;SDS011;4266;48.816;9.154;2023-04-09T02:07:37;15.50;;;14.20;;
8458;SDS011;4266;48.816;9.154;2023-04-09T02:10:04;15.23;;;13.70;;
8458;SDS011;4266;48.816;9.154;2023-04-09T02:12:31;14.80;;;13.43;;
8458;SDS011;4266;48.816;9.154;2023-04-09T02:14:56;16.93;;;14.90;;
8458;SDS011;4266;48.816;9.154;2023-04-09T02:17:23;15.23;;;13.73;;
8458;SDS011;4266;48.816;9.154;2023-04-09T02:19:49;14.83;;;13.37;;
8458;SDS011;4266;48.816;9.154;2023-04-09T02:22:15;15.07;;;13.67;;
8458;SDS011;4266;48.816;9.154;2023-04-09T02:24:41;15.97;;;14.23;;
8458;SDS011;4266;48.816;9.154;2023-04-09T02:27:06;14.93;;;13.50;;
8458;SDS011;4266;48.816;9.154;2023-04-09T02:29:33;15.00;;;13.50;;
8458;SDS011;4266;48.816;9.154;2023-04-09T02:31:59;15.30;;;13.70;;
8458;SDS011;4266;48.816;9.154;2023-04-09T02:34:25;15.60;;;14.00;;
8458;SDS011;4266;48.816;9.154;2023-04-09T02:36:51;17.87;;;16.03;;
8458;SDS011;4266;48.816;9.154;2023-04-09T02:39:17;16.33;;;14.67;;
8458;SDS011;4266;48.816;9.154;2023-04-09T02:41:43;15.47;;;14.07;;
8458;SDS011;4266;48.816;9.154;2023-04-09T02:44:09;16.77;;;15.17;;
8458;SDS011;4266;48.816;9.154;2023-04-09T02:46:35;18.57;;;16.80;;
8458;SDS011;4266;48.816;9.154;2023-04-09T02:49:01;18.47;;;16.77;;
8458;SDS011;4266;48.816;9.154;2023-04-09T02:51:26;17.77;;;16.17;;
8458;SDS011;4266;48.816;9.154;2023-04-09T02:53:53;16.97;;;15.17;;
8458;SDS011;4266;48.816;9.154;2023-04-09T02:56:20;17.90;;;16.00;;
8458;SDS011;4266;48.816;9.154;2023-04-09T02:58:45;18.23;;;16.43;;
8458;SDS011;4266;48.816;9.154;2023-04-09T03:01:11;17.97;;;16.10;;
8458;SDS011;4266;48.816;9.154;2023-04-09T03:03:37;17.70;;;16.03;;
8458;SDS011;4266;48.816;9.154;2023-04-09T03:06:02;18.07;;;15.97;;
8458;SDS011;4266;48.816;9.154;2023-04-09T03:08:29;19.47;;;15.53;;
8458;SDS011;4266;48.816;9.154;2023-04-09T03:10:55;17.50;;;14.90;;
8458;SDS011;4266;48.816;9.154;2023-04-09T03:13:20;17.70;;;16.07;;
8458;SDS011;4266;48.816;9.154;2023-04-09T03:15:50;16.97;;;15.37;;
8458;SDS011;4266;48.816;9.154;2023-04-09T03:18:12;16.27;;;14.77;;
8458;SDS011;4266;48.816;9.154;2023-04-09T03:20:38;16.00;;;14.30;;
8458;SDS011;4266;48.816;9.154;2023-04-09T03:23:03;16.07;;;14.57;;
8458;SDS011;4266;48.816;9.154;2023-04-09T03:25:29;18.10;;;16.17;;
8458;SDS011;4266;48.816;9.154;2023-04-09T03:27:55;18.43;;;16.27;;
8458;SDS011;4266;48.816;9.154;2023-04-09T03:30:20;18.23;;;16.53;;
8458;SDS011;4266;48.816;9.154;2023-04-09T03:32:46;19.30;;;16.67;;
8458;SDS011;4266;48.816;9.154;2023-04-09T03:35:12;18.30;;;16.40;;
8458;SDS011;4266;48.816;9.154;2023-04-09T03:37:38;17.40;;;15.73;;
8458;SDS011;4266;48.816;9.154;2023-04-09T03:40:04;17.97;;;16.27;;
8458;SDS011;4266;48.816;9.154;2023-04-09T03:42:32;18.93;;;17.10;;
8458;SDS011;4266;48.816;9.154;2023-04-09T03:44:58;18.93;;;17.13;;
8458;SDS011;4266;48.816;9.154;2023-04-09T03:47:24;18.60;;;16.70;;
8458;SDS011;4266;48.816;9.154;2023-04-09T03:49:50;17.53;;;15.93;;
8458;SDS011;4266;48.816;9.154;2023-04-09T03:52:15;18.43;;;16.47;;
8458;SDS011;4266;48.816;9.154;2023-04-09T03:54:41;19.63;;;17.27;;
8458;SDS011;4266;48.816;9.154;2023-04-09T03:57:08;17.77;;;16.10;;
8458;SDS011;4266;48.816;9.154;2023-04-09T03:59:34;18.67;;;16.67;;
8458;SDS011;4266;48.816;9.154;2023-04-09T04:02:01;17.27;;;15.67;;
8458;SDS011;4266;48.816;9.154;2023-04-09T04:04:26;16.83;;;15.20;;
8458;SDS011;4266;48.816;9.154;2023-04-09T04:06:52;16.67;;;15.07;;
8458;SDS011;4266;48.816;9.154;2023-04-09T04:09:18;18.17;;;16.37;;
8458;SDS011;4266;48.816;9.154;2023-04-09T04:11:44;17.23;;;15.43;;
8458;SDS011;4266;48.816;9.154;2023-04-09T04:14:10;18.20;;;16.50;;
8458;SDS011;4266;48.816;9.154;2023-04-09T04:16:35;19.23;;;17.43;;
8458;SDS011;4266;48.816;9.154;2023-04-09T04:19:01;19.40;;;17.50;;
8458;SDS011;4266;48.816;9.154;2023-04-09T04:21:27;17.97;;;16.03;;
8458;SDS011;4266;48.816;9.154;2023-04-09T04:23:53;19.63;;;17.67;;
8458;SDS011;4266;48.816;9.154;2023-04-09T04:26:19;18.67;;;16.87;;
8458;SDS011;4266;48.816;9.154;2023-04-09T04:28:45;20.13;;;18.13;;
8458;SDS011;4266;48.816;9.154;2023-04-09T04:31:10;18.97;;;17.13;;
8458;SDS011;4266;48.816;9.154;2023-04-09T04:33:36;18.47;;;16.67;;
8458;SDS011;4266;48.816;9.154;2023-04-09T04:36:04;18.30;;;16.47;;
8458;SDS011;4266;48.816;9.154;2023-04-09T04:38:29;19.13;;;17.13;;
8458;SDS011;4266;48.816;9.154;2023-04-09T04:40:55;17.93;;;16.20;;
8458;SDS011;4266;48.816;9.154;2023-04-09T04:43:21;17.80;;;15.93;;
8458;SDS011;4266;48.816;9.154;2023-04-09T04:45:46;17.53;;;15.83;;
8458;SDS011;4266;48.816;9.154;2023-04-09T04:48:12;15.93;;;14.37;;
8458;SDS011;4266;48.816;9.154;2023-04-09T04:50:38;19.07;;;15.10;;
8458;SDS011;4266;48.816;9.154;2023-04-09T04:53:05;16.47;;;14.93;;
8458;SDS011;4266;48.816;9.154;2023-04-09T04:55:30;16.87;;;15.33;;
8458;SDS011;4266;48.816;9.154;2023-04-09T04:57:56;17.60;;;15.90;;
8458;SDS011;4266;48.816;9.154;2023-04-09T05:00:22;17.93;;;16.13;;
8458;SDS011;4266;48.816;9.154;2023-04-09T05:02:48;16.43;;;14.97;;
8458;SDS011;4266;48.816;9.154;2023-04-09T05:05:13;17.83;;;15.70;;
8458;SDS011;4266;48.816;9.154;2023-04-09T05:07:39;16.97;;;14.97;;
8458;SDS011;4266;48.816;9.154;2023-04-09T05:10:05;18.93;;;17.13;;
8458;SDS011;4266;48.816;9.154;2023-04-09T05:12:32;18.27;;;16.57;;
8458;SDS011;4266;48.816;9.154;2023-04-09T05:14:58;18.47;;;16.63;;
8458;SDS011;4266;48.816;9.154;2023-04-09T05:17:24;16.20;;;14.50;;
8458;SDS011;4266;48.816;9.154;2023-04-09T05:19:51;16.23;;;14.70;;
8458;SDS011;4266;48.816;9.154;2023-04-09T05:22:17;17.30;;;15.53;;
8458;SDS011;4266;48.816;9.154;2023-04-09T05:24:42;19.77;;;17.77;;
8458;SDS011;4266;48.816;9.154;2023-04-09T05:27:08;17.63;;;15.93;;
8458;SDS011;4266;48.816;9.154;2023-04-09T05:29:34;18.90;;;16.87;;
8458;SDS011;4266;48.816;9.154;2023-04-09T05:31:59;18.00;;;16.30;;
8458;SDS011;4266;48.816;9.154;2023-04-09T05:34:25;18.20;;;16.30;;
8458;SDS011;4266;48.816;9.154;2023-04-09T05:36:51;17.07;;;15.57;;
8458;SDS011;4266;48.816;9.154;2023-04-09T05:39:17;18.00;;;16.20;;
8458;SDS011;4266;48.816;9.154;2023-04-09T05:41:42;18.10;;;16.40;;
8458;SDS011;4266;48.816;9.154;2023-04-09T05:44:08;17.17;;;15.50;;
8458;SDS011;4266;48.816;9.154;2023-04-09T05:46:34;18.60;;;16.77;;
8458;SDS011;4266;48.816;9.154;2023-04-09T05:49:00;17.70;;;16.00;;
8458;SDS011;4266;48.816;9.154;2023-04-09T05:51:26;17.73;;;16.07;;
8458;SDS011;4266;48.816;9.154;2023-04-09T05:53:53;17.60;;;15.90;;
8458;SDS011;4266;48.816;9.154;2023-04-09T05:56:18;18.00;;;16.30;;
8458;SDS011;4266;48.816;9.154;2023-04-09T05:58:44;17.23;;;15.63;;
8458;SDS011;4266;48.816;9.154;2023-04-09T06:01:10;16.23;;;14.57;;
8458;SDS011;4266;48.816;9.154;2023-04-09T06:03:37;17.03;;;15.43;;
8458;SDS011;4266;48.816;9.154;2023-04-09T06:06:03;17.50;;;15.80;;
8458;SDS011;4266;48.816;9.154;2023-04-09T06:08:29;17.10;;;15.60;;
8458;SDS011;4266;48.816;9.154;2023-04-09T06:10:55;16.33;;;14.83;;
8458;SDS011;4266;48.816;9.154;2023-04-09T06:13:20;17.10;;;15.03;;
8458;SDS011;4266;48.816;9.154;2023-04-09T06:15:47;17.40;;;15.60;;
8458;SDS011;4266;48.816;9.154;2023-04-09T06:18:12;15.50;;;14.10;;
8458;SDS011;4266;48.816;9.154;2023-04-09T06:20:39;15.97;;;13.90;;
8458;SDS011;4266;48.816;9.154;2023-04-09T06:23:05;14.17;;;12.87;;
8458;SDS011;4266;48.816;9.154;2023-04-09T06:25:32;13.80;;;12.60;;
8458;SDS011;4266;48.816;9.154;2023-04-09T06:27:57;14.03;;;12.83;;
8458;SDS011;4266;48.816;9.154;2023-04-09T06:30:23;14.47;;;13.20;;
8458;SDS011;4266;48.816;9.154;2023-04-09T06:32:49;14.13;;;12.93;;
8458;SDS011;4266;48.816;9.154;2023-04-09T06:35:15;14.73;;;13.33;;
8458;SDS011;4266;48.816;9.154;2023-04-09T06:37:41;15.00;;;13.63;;
8458;SDS011;4266;48.816;9.154;2023-04-09T06:40:07;14.60;;;13.20;;
8458;SDS011;4266;48.816;9.154;2023-04-09T06:42:34;15.03;;;13.70;;
8458;SDS011;4266;48.816;9.154;2023-04-09T06:44:59;15.17;;;13.77;;
8458;SDS011;4266;48.816;9.154;2023-04-09T06:47:25;14.40;;;13.10;;
8458;SDS011;4266;48.816;9.154;2023-04-09T06:49:51;14.30;;;12.90;;
8458;SDS011;4266;48.816;9.154;2023-04-09T06:52:17;13.77;;;12.63;;
8458;SDS011;4266;48.816;9.154;2023-04-09T06:54:43;13.30;;;12.20;;
8458;SDS011;4266;48.816;9.154;2023-04-09T06:57:09;12.87;;;11.80;;
8458;SDS011;4266;48.816;9.154;2023-04-09T06:59:34;13.17;;;12.17;;
8458;SDS011;4266;48.816;9.154;2023-04-09T07:02:00;12.70;;;11.63;;
8458;SDS011;4266;48.816;9.154;2023-04-09T07:04:26;13.00;;;12.00;;
8458;SDS011;4266;48.816;9.154;2023-04-09T07:06:52;12.48;;;11.48;;
8458;SDS011;4266;48.816;9.154;2023-04-09T07:09:18;13.27;;;12.18;;
8458;SDS011;4266;48.816;9.154;2023-04-09T07:11:45;12.52;;;11.48;;
8458;SDS011;4266;48.816;9.154;2023-04-09T07:14:10;12.37;;;11.38;;
8458;SDS011;4266;48.816;9.154;2023-04-09T07:16:36;12.60;;;11.57;;
8458;SDS011;4266;48.816;9.154;2023-04-09T07:19:02;12.23;;;11.27;;
8458;SDS011;4266;48.816;9.154;2023-04-09T07:21:28;11.60;;;10.70;;
8458;SDS011;4266;48.816;9.154;2023-04-09T07:23:53;11.98;;;11.07;;
8458;SDS011;4266;48.816;9.154;2023-04-09T07:26:19;10.38;;;9.57;;
8458;SDS011;4266;48.816;9.154;2023-04-09T07:28:45;11.07;;;10.20;;
8458;SDS011;4266;48.816;9.154;2023-04-09T07:31:12;10.65;;;9.95;;
8458;SDS011;4266;48.816;9.154;2023-04-09T07:33:38;11.43;;;10.60;;
8458;SDS011;4266;48.816;9.154;2023-04-09T07:36:04;11.32;;;10.43;;
8458;SDS011;4266;48.816;9.154;2023-04-09T07:38:31;10.02;;;9.30;;
8458;SDS011;4266;48.816;9.154;2023-04-09T07:40:56;10.15;;;9.38;;
8458;SDS011;4266;48.816;9.154;2023-04-09T07:43:22;10.13;;;9.43;;
8458;SDS011;4266;48.816;9.154;2023-04-09T07:45:48;9.90;;;9.20;;
8458;SDS011;4266;48.816;9.154;2023-04-09T07:48:14;10.52;;;9.73;;
8458;SDS011;4266;48.816;9.154;2023-04-09T07:50:40;10.60;;;9.80;;
8458;SDS011;4266;48.816;9.154;2023-04-09T07:53:06;10.15;;;9.45;;
8458;SDS011;4266;48.816;9.154;2023-04-09T07:55:32;9.82;;;9.13;;
8458;SDS011;4266;48.816;9.154;2023-04-09T07:57:58;10.00;;;9.10;;
8458;SDS011;4266;48.816;9.154;2023-04-09T08:00:24;7.70;;;7.20;;
8458;SDS011;4266;48.816;9.154;2023-04-09T08:02:49;8.75;;;8.05;;
8458;SDS011;4266;48.816;9.154;2023-04-09T08:05:15;9.48;;;8.77;;
8458;SDS011;4266;48.816;9.154;2023-04-09T08:07:41;8.15;;;7.55;;
8458;SDS011;4266;48.816;9.154;2023-04-09T08:10:07;8.40;;;7.80;;
8458;SDS011;4266;48.816;9.154;2023-04-09T08:12:34;8.55;;;7.95;;
8458;SDS011;4266;48.816;9.154;2023-04-09T08:15:00;8.48;;;7.82;;
8458;SDS011;4266;48.816;9.154;2023-04-09T08:17:26;7.78;;;7.28;;
8458;SDS011;4266;48.816;9.154;2023-04-09T08:19:53;8.02;;;7.53;;
8458;SDS011;4266;48.816;9.154;2023-04-09T08:22:18;8.68;;;8.07;;
8458;SDS011;4266;48.816;9.154;2023-04-09T08:24:49;8.45;;;7.80;;
8458;SDS011;4266;48.816;9.154;2023-04-09T08:27:10;7.40;;;6.90;;
8458;SDS011;4266;48.816;9.154;2023-04-09T08:29:35;7.40;;;6.90;;
8458;SDS011;4266;48.816;9.154;2023-04-09T08:32:02;7.15;;;6.68;;
8458;SDS011;4266;48.816;9.154;2023-04-09T08:34:28;8.38;;;7.78;;
8458;SDS011;4266;48.816;9.154;2023-04-09T08:36:54;7.90;;;7.40;;
8458;SDS011;4266;48.816;9.154;2023-04-09T08:39:19;6.57;;;6.18;;
8458;SDS011;4266;48.816;9.154;2023-04-09T08:41:45;7.30;;;6.80;;
8458;SDS011;4266;48.816;9.154;2023-04-09T08:44:11;7.53;;;6.93;;
8458;SDS011;4266;48.816;9.154;2023-04-09T08:46:37;7.40;;;6.87;;
8458;SDS011;4266;48.816;9.154;2023-04-09T08:49:02;7.45;;;6.95;;
8458;SDS011;4266;48.816;9.154;2023-04-09T08:51:28;7.37;;;6.85;;
8458;SDS011;4266;48.816;9.154;2023-04-09T08:53:55;8.13;;;7.32;;
8458;SDS011;4266;48.816;9.154;2023-04-09T08:56:20;8.50;;;7.90;;
8458;SDS011;4266;48.816;9.154;2023-04-09T08:58:46;8.63;;;7.90;;
8458;SDS011;4266;48.816;9.154;2023-04-09T09:01:19;7.55;;;7.05;;
8458;SDS011;4266;48.816;9.154;2023-04-09T09:03:51;8.90;;;8.30;;
8458;SDS011;4266;48.816;9.154;2023-04-09T09:06:19;7.07;;;6.57;;
8458;SDS011;4266;48.816;9.154;2023-04-09T09:08:44;6.45;;;6.00;;
8458;SDS011;4266;48.816;9.154;2023-04-09T09:11:10;7.55;;;7.05;;
8458;SDS011;4266;48.816;9.154;2023-04-09T09:13:36;6.00;;;5.60;;
8458;SDS011;4266;48.816;9.154;2023-04-09T09:16:17;5.32;;;5.03;;
8458;SDS011;4266;48.816;9.154;2023-04-09T09:18:42;4.85;;;4.55;;
8458;SDS011;4266;48.816;9.154;2023-04-09T09:21:12;5.28;;;4.97;;
8458;SDS011;4266;48.816;9.154;2023-04-09T09:23:37;5.70;;;5.18;;
8458;SDS011;4266;48.816;9.154;2023-04-09T09:26:10;6.20;;;5.80;;
8458;SDS011;4266;48.816;9.154;2023-04-09T09:28:43;7.25;;;6.75;;
8458;SDS011;4266;48.816;9.154;2023-04-09T09:31:10;7.00;;;6.60;;
8458;SDS011;4266;48.816;9.154;2023-04-09T09:33:35;7.57;;;7.07;;
8458;SDS011;4266;48.816;9.154;2023-04-09T09:36:01;7.65;;;7.05;;
8458;SDS011;4266;48.816;9.154;2023-04-09T09:38:28;9.02;;;8.23;;
8458;SDS011;4266;48.816;9.154;2023-04-09T09:40:54;9.43;;;8.73;;
8458;SDS011;4266;48.816;9.154;2023-04-09T09:43:20;9.20;;;8.40;;
8458;SDS011;4266;48.816;9.154;2023-04-09T09:45:46;9.30;;;8.60;;
8458;SDS011;4266;48.816;9.154;2023-04-09T09:48:11;9.15;;;8.45;;
8458;SDS011;4266;48.816;9.154;2023-04-09T09:50:38;8.32;;;7.72;;
8458;SDS011;4266;48.816;9.154;2023-04-09T09:53:05;9.75;;;8.88;;
8458;SDS011;4266;48.816;9.154;2023-04-09T09:55:31;9.18;;;8.48;;
8458;SDS011;4266;48.816;9.154;2023-04-09T09:57:57;8.95;;;8.35;;
8458;SDS011;4266;48.816;9.154;2023-04-09T10:00:22;8.95;;;8.15;;
8458;SDS011;4266;48.816;9.154;2023-04-09T10:02:52;9.18;;;8.48;;
8458;SDS011;4266;48.816;9.154;2023-04-09T10:05:14;9.45;;;8.60;;
8458;SDS011;4266;48.816;9.154;2023-04-09T10:07:40;8.80;;;8.20;;
8458;SDS011;4266;48.816;9.154;2023-04-09T10:10:06;10.15;;;9.45;;
8458;SDS011;4266;48.816;9.154;2023-04-09T10:12:32;9.88;;;9.20;;
8458;SDS011;4266;48.816;9.154;2023-04-09T10:14:58;8.10;;;7.60;;
8458;SDS011;4266;48.816;9.154;2023-04-09T10:17:24;8.63;;;8.05;;
8458;SDS011;4266;48.816;9.154;2023-04-09T10:19:54;7.97;;;7.37;;
8458;SDS011;4266;48.816;9.154;2023-04-09T10:22:19;6.43;;;6.03;;
8458;SDS011;4266;48.816;9.154;2023-04-09T10:24:44;7.62;;;7.12;;
8458;SDS011;4266;48.816;9.154;2023-04-09T10:29:55;8.60;;;8.00;;
8458;SDS011;4266;48.816;9.154;2023-04-09T10:32:21;7.60;;;7.10;;
8458;SDS011;4266;48.816;9.154;2023-04-09T10:34:47;7.30;;;6.90;;
8458;SDS011;4266;48.816;9.154;2023-04-09T10:37:14;6.72;;;6.32;;
8458;SDS011;4266;48.816;9.154;2023-04-09T10:39:39;6.60;;;6.20;;
8458;SDS011;4266;48.816;9.154;2023-04-09T10:42:07;6.07;;;5.68;;
8458;SDS011;4266;48.816;9.154;2023-04-09T10:44:32;5.10;;;4.80;;
8458;SDS011;4266;48.816;9.154;2023-04-09T10:46:58;5.07;;;4.78;;
8458;SDS011;4266;48.816;9.154;2023-04-09T10:49:26;5.78;;;5.40;;
8458;SDS011;4266;48.816;9.154;2023-04-09T10:51:53;5.93;;;5.53;;
8458;SDS011;4266;48.816;9.154;2023-04-09T10:57:13;6.68;;;6.20;;
8458;SDS011;4266;48.816;9.154;2023-04-09T10:59:39;6.25;;;5.85;;
8458;SDS011;4266;48.816;9.154;2023-04-09T11:02:08;6.32;;;5.93;;
8458;SDS011;4266;48.816;9.154;2023-04-09T11:04:38;6.10;;;5.50;;
8458;SDS011;4266;48.816;9.154;2023-04-09T11:07:06;5.25;;;4.95;;
8458;SDS011;4266;48.816;9.154;2023-04-09T11:09:36;5.43;;;5.12;;
8458;SDS011;4266;48.816;9.154;2023-04-09T11:12:02;4.85;;;4.60;;
8458;SDS011;4266;48.816;9.154;2023-04-09T11:14:28;5.15;;;4.85;;
8458;SDS011;4266;48.816;9.154;2023-04-09T11:16:55;4.60;;;4.30;;
8458;SDS011;4266;48.816;9.154;2023-04-09T11:19:20;5.03;;;4.72;;
8458;SDS011;4266;48.816;9.154;2023-04-09T11:21:47;5.25;;;4.95;;
8458;SDS011;4266;48.816;9.154;2023-04-09T11:24:13;4.40;;;4.20;;
8458;SDS011;4266;48.816;9.154;2023-04-09T11:26:39;4.20;;;3.92;;
8458;SDS011;4266;48.816;9.154;2023-04-09T11:29:06;5.40;;;5.07;;
8458;SDS011;4266;48.816;9.154;2023-04-09T11:31:33;4.90;;;4.60;;
8458;SDS011;4266;48.816;9.154;2023-04-09T11:34:00;4.40;;;4.20;;
8458;SDS011;4266;48.816;9.154;2023-04-09T11:36:25;5.50;;;5.20;;
8458;SDS011;4266;48.816;9.154;2023-04-09T11:38:52;5.10;;;4.80;;
8458;SDS011;4266;48.816;9.154;2023-04-09T11:41:31;5.32;;;4.93;;
8458;SDS011;4266;48.816;9.154;2023-04-09T11:44:02;5.93;;;5.53;;
8458;SDS011;4266;48.816;9.154;2023-04-09T11:46:29;4.93;;;4.62;;
8458;SDS011;4266;48.816;9.154;2023-04-09T11:48:54;4.97;;;4.68;;
8458;SDS011;4266;48.816;9.154;2023-04-09T11:51:20;5.18;;;4.87;;
8458;SDS011;4266;48.816;9.154;2023-04-09T11:53:48;5.10;;;4.80;;
8458;SDS011;4266;48.816;9.154;2023-04-09T11:56:13;5.40;;;5.10;;
8458;SDS011;4266;48.816;9.154;2023-04-09T11:58:43;5.30;;;5.00;;
8458;SDS011;4266;48.816;9.154;2023-04-09T12:01:05;6.47;;;6.07;;
8458;SDS011;4266;48.816;9.154;2023-04-09T12:03:31;6.20;;;5.80;;
8458;SDS011;4266;48.816;9.154;2023-04-09T12:05:58;6.65;;;6.25;;
8458;SDS011;4266;48.816;9.154;2023-04-09T12:08:23;6.53;;;6.12;;
8458;SDS011;4266;48.816;9.154;2023-04-09T12:10:50;6.55;;;6.15;;
8458;SDS011;4266;48.816;9.154;2023-04-09T12:13:15;5.80;;;5.50;;
8458;SDS011;4266;48.816;9.154;2023-04-09T12:15:41;6.53;;;6.10;;
8458;SDS011;4266;48.816;9.154;2023-04-09T12:18:07;6.53;;;6.05;;
8458;SDS011;4266;48.816;9.154;2023-04-09T12:20:34;6.03;;;5.70;;
8458;SDS011;4266;48.816;9.154;2023-04-09T12:23:01;5.95;;;5.62;;
8458;SDS011;4266;48.816;9.154;2023-04-09T12:25:33;6.55;;;6.15;;
8458;SDS011;4266;48.816;9.154;2023-04-09T12:30:39;6.15;;;5.75;;
8458;SDS011;4266;48.816;9.154;2023-04-09T12:33:05;6.35;;;5.95;;
8458;SDS011;4266;48.816;9.154;2023-04-09T12:35:32;6.40;;;6.00;;
8458;SDS011;4266;48.816;9.154;2023-04-09T12:37:57;5.80;;;5.50;;
8458;SDS011;4266;48.816;9.154;2023-04-09T12:40:24;6.75;;;6.35;;
8458;SDS011;4266;48.816;9.154;2023-04-09T12:42:49;6.45;;;6.05;;
8458;SDS011;4266;48.816;9.154;2023-04-09T12:45:16;6.53;;;6.12;;
8458;SDS011;4266;48.816;9.154;2023-04-09T12:47:43;6.75;;;6.35;;
8458;SDS011;4266;48.816;9.154;2023-04-09T12:50:09;6.20;;;5.78;;
8458;SDS011;4266;48.816;9.154;2023-04-09T12:52:36;6.25;;;5.85;;
8458;SDS011;4266;48.816;9.154;2023-04-09T12:55:02;6.22;;;5.82;;
8458;SDS011;4266;48.816;9.154;2023-04-09T12:57:28;8.68;;;8.18;;
8458;SDS011;4266;48.816;9.154;2023-04-09T12:59:54;6.75;;;6.35;;
8458;SDS011;4266;48.816;9.154;2023-04-09T13:02:20;7.07;;;6.57;;
8458;SDS011;4266;48.816;9.154;2023-04-09T13:04:47;8.10;;;7.50;;
8458;SDS011;4266;48.816;9.154;2023-04-09T13:07:13;6.65;;;6.25;;
8458;SDS011;4266;48.816;9.154;2023-04-09T13:09:38;7.50;;;6.90;;
8458;SDS011;4266;48.816;9.154;2023-04-09T13:12:04;6.53;;;6.03;;
8458;SDS011;4266;48.816;9.154;2023-04-09T13:14:31;6.80;;;6.30;;
8458;SDS011;4266;48.816;9.154;2023-04-09T13:16:56;6.10;;;5.70;;
8458;SDS011;4266;48.816;9.154;2023-04-09T13:19:22;6.45;;;6.05;;
8458;SDS011;4266;48.816;9.154;2023-04-09T13:21:48;6.15;;;5.75;;
8458;SDS011;4266;48.816;9.154;2023-04-09T13:24:13;6.65;;;6.15;;
8458;SDS011;4266;48.816;9.154;2023-04-09T13:26:39;7.47;;;6.97;;
8458;SDS011;4266;48.816;9.154;2023-04-09T13:29:05;8.30;;;7.80;;
8458;SDS011;4266;48.816;9.154;2023-04-09T13:31:30;6.60;;;6.20;;
8458;SDS011;4266;48.816;9.154;2023-04-09T13:34:03;6.37;;;5.87;;
8458;SDS011;4266;48.816;9.154;2023-04-09T13:36:30;5.93;;;5.53;;
8458;SDS011;4266;48.816;9.154;2023-04-09T13:38:55;6.50;;;6.00;;
8458;SDS011;4266;48.816;9.154;2023-04-09T13:41:21;6.43;;;5.93;;
8458;SDS011;4266;48.816;9.154;2023-04-09T13:43:47;9.93;;;6.23;;
8458;SDS011;4266;48.816;9.154;2023-04-09T13:46:13;6.47;;;5.97;;
8458;SDS011;4266;48.816;9.154;2023-04-09T13:48:40;5.70;;;5.30;;
8458;SDS011;4266;48.816;9.154;2023-04-09T13:51:06;6.80;;;6.30;;
8458;SDS011;4266;48.816;9.154;2023-04-09T13:53:33;6.27;;;5.77;;
8458;SDS011;4266;48.816;9.154;2023-04-09T13:55:59;6.20;;;5.80;;
8458;SDS011;4266;48.816;9.154;2023-04-09T13:58:24;6.40;;;5.90;;
8458;SDS011;4266;48.816;9.154;2023-04-09T14:00:50;6.40;;;6.00;;
8458;SDS011;4266;48.816;9.154;2023-04-09T14:03:16;6.07;;;5.67;;
8458;SDS011;4266;48.816;9.154;2023-04-09T14:05:41;6.87;;;6.37;;
8458;SDS011;4266;48.816;9.154;2023-04-09T14:08:07;6.47;;;5.97;;
8458;SDS011;4266;48.816;9.154;2023-04-09T14:10:34;6.17;;;5.77;;
8458;SDS011;4266;48.816;9.154;2023-04-09T14:12:59;5.87;;;5.47;;
8458;SDS011;4266;48.816;9.154;2023-04-09T14:15:25;7.23;;;6.63;;
8458;SDS011;4266;48.816;9.154;2023-04-09T14:17:50;6.27;;;5.87;;
8458;SDS011;4266;48.816;9.154;2023-04-09T14:20:17;5.90;;;5.50;;
8458;SDS011;4266;48.816;9.154;2023-04-09T14:22:42;6.23;;;5.83;;
8458;SDS011;4266;48.816;9.154;2023-04-09T14:25:09;6.07;;;5.67;;
8458;SDS011;4266;48.816;9.154;2023-04-09T14:27:35;6.77;;;6.27;;
8458;SDS011;4266;48.816;9.154;2023-04-09T14:30:01;7.27;;;6.67;;
8458;SDS011;4266;48.816;9.154;2023-04-09T14:32:27;6.27;;;5.77;;
8458;SDS011;4266;48.816;9.154;2023-04-09T14:34:52;6.23;;;5.83;;
8458;SDS011;4266;48.816;9.154;2023-04-09T14:37:19;6.20;;;5.80;;
8458;SDS011;4266;48.816;9.154;2023-04-09T14:39:45;8.27;;;7.60;;
8458;SDS011;4266;48.816;9.154;2023-04-09T14:42:10;6.87;;;6.27;;
8458;SDS011;4266;48.816;9.154;2023-04-09T14:44:37;7.37;;;6.83;;
8458;SDS011;4266;48.816;9.154;2023-04-09T14:47:02;6.93;;;6.43;;
8458;SDS011;4266;48.816;9.154;2023-04-09T14:49:28;6.53;;;6.03;;
8458;SDS011;4266;48.816;9.154;2023-04-09T14:51:54;7.20;;;6.70;;
8458;SDS011;4266;48.816;9.154;2023-04-09T14:54:19;7.27;;;6.77;;
8458;SDS011;4266;48.816;9.154;2023-04-09T14:56:45;7.50;;;6.93;;
8458;SDS011;4266;48.816;9.154;2023-04-09T14:59:11;7.07;;;6.50;;
8458;SDS011;4266;48.816;9.154;2023-04-09T15:01:37;6.50;;;6.07;;
8458;SDS011;4266;48.816;9.154;2023-04-09T15:04:02;6.60;;;6.10;;